Tiempo atmosférico en la estación meteorológica de Zaorejas, Guadalajara (1230 m.)



Fecha
DESCASC
Temp. máxima en grados centígrados (hora)
DESCASC
Temp. mínima en grados centígrados (hora)
DESCASC
Temp. media en grados centígrados
DESCASC
Racha de viento máxima en m/sg (hora)
DESCASC
Velocidad máxima media en intervalos de 10 minutos(hora)
DESCASC
Precipitaciones diarias en mm
DESCASC
Precipitaciones de 00:00 a 06:00 en mm
DESCASC
Precipitaciones de 06:00 a 12:00 en mm
DESCASC
Precipitaciones de 12:00 a 18:00 en mm
DESCASC
Precipitaciones de 18:00 a 24:00 en mm
DESCASC
25-01-2020 5.8 (12:10) 0.8 (06:20) 3.3 7.5 (12:20) 3.89 (12:00) 4.6 0 1.2 1.6 1.8
24-01-2020 4.5 (15:10) 0 (05:50) 2.3 6.39 (01:20) 3.61 (01:20) 0.2 0.2 0 0 0
23-01-2020 5.6 (16:30) -2.4 (09:30) 1.6 6.11 (13:00) 3.33 (14:10) 16.8 0.4 1.6 13.4 1.4
22-01-2020 2.1 (14:50) -0.5 (-00:0) 0.8 6.94 (16:20) 3.33 (16:20) 13.8 0 0.4 12.2 1.2
21-01-2020 -0.1 (23:20) -2.9 (-00:0) -1.5 15.28 (01:40) 7.22 (00:50) 0 0 0 0 0
20-01-2020 -1.5 (14:10) -5 (-00:0) -3.3 15.83 (22:00) 6.67 (00:10) 0 0 0 0 0
19-01-2020 3 (00:00) -3.5 (-00:0) -0.3 16.39 (19:40) 9.72 (18:10) 1.2 0.2 0.8 0 0.2
18-01-2020 5.4 (20:40) -0.4 (00:00) 2.5 11.39 (18:40) 6.11 (15:50) 3.6 0 0 0.4 3.2
17-01-2020 7.6 (16:40) -0.4 (00:00) 3.6 11.11 (01:10) 5.83 (09:30) 0 0 0 0 0
16-01-2020 9.4 (16:30) 4.8 (00:00) 7.1 10.56 (22:30) 6.11 (22:40) 0 0 0 0 0
15-01-2020 7.7 (13:10) 2 (00:00) 4.8 10.83 (13:10) 6.11 (13:10) 0 0 0 0 0
14-01-2020 8.3 (15:50) -2.7 (-00:0) 2.8 10.28 (21:40) 5.28 (21:20) 0 0 0 0 0
13-01-2020 7.9 (13:30) -1.9 (-00:0) 3 8.89 (20:00) 5.28 (20:40) 0 0 0 0 0
12-01-2020 10.8 (16:10) -5.3 (-00:0) 2.8 3.61 (14:30) 1.94 (23:00) 0 0 0 0 0
11-01-2020 9.2 (16:00) -4.1 (-00:0) 2.5 4.72 (16:10) 2.22 (16:30) 0 0 0 0 0
10-01-2020 4.9 (13:30) -0.4 (00:00) 2.3 13.61 (15:50) 8.89 (17:30) 0 0 0 0 0
09-01-2020 12.4 (15:30) -0.5 (-00:0) 5.9 7.5 (16:20) 4.17 (16:20) 0 0 0 0 0
08-01-2020 12.1 (16:40) -0.4 (00:00) 5.9 5.28 (14:20) 2.78 (21:40) 0 0 0 0 0
07-01-2020 14.3 (15:30) -2.1 (-00:0) 6.1 4.72 (16:30) 1.94 (16:00) 0 0 0 0 0
06-01-2020 13.9 (16:20) 0.1 (00:00) 7 5.83 (14:30) 3.06 (05:40) 0 0 0 0 0
05-01-2020 15.4 (16:10) -4.1 (-00:0) 5.6 4.17 (19:10) 2.78 (20:50) 0 0 0 0 0
04-01-2020 7.7 (16:00) -1.4 (-00:0) 3.1 7.78 (12:50) 3.61 (12:30) 0 0 0 0 0
03-01-2020 9.4 (16:10) 0.4 (00:00) 4.9 6.11 (02:00) 4.44 (02:00) 0 0 0 0 0
02-01-2020 14 (15:30) -1 (-00:0) 6.5 7.22 (18:40) 5.28 (19:00) 0 0 0 0 0
01-01-2020 14.7 (16:40) -1.8 (-00:0) 6.4 4.44 (14:50) 2.22 (22:00) 0 0 0 0 0
31-12-2019 14.9 (16:50) -1.8 (-00:0) 6.5 4.17 (13:50) 2.5 (14:00) 0 0 0 0 0
30-12-2019 -- (--) -- (--) -- -- (--) -- (--) -- 0 0 0 --
29-12-2019 14.7 (16:20) -1.9 (-00:0) 6.4 2.22 (22:50) 1.39 (09:50) 0 0 0 0 0
28-12-2019 15.2 (16:20) -2.8 (-00:0) 6.2 3.33 (06:20) 1.94 (06:10) 0 0 0 0 0

Gráficas

Temp. máximas Temp. mínimas Temp. medias Precipitaciones Rachas de viento máximas Velocidades máximas media en intervalos de 10 minutos

Datos horarios

Fecha y hora oficial Temperatura (ºC) Velocidad del viento (km/h) Dirección del viento Racha (km/h) Dirección de racha Precipitación (mm) Presión (hPa) Tendencia (hPa) Humedad (%)
2020-01-26 23:00:00 2.5 8 Sudoeste 18 Sudoeste 0 -- -- 95
2020-01-26 22:00:00 2.1 12 Sudoeste 19 Sudoeste 0 -- -- 91
2020-01-26 21:00:00 2 10 Sudoeste 18 Sudoeste 0 -- -- 90
2020-01-26 20:00:00 1.9 8 Sur 14 Sudoeste 0 -- -- 87
2020-01-26 19:00:00 3.6 9 Sudoeste 17 Sudoeste 0 -- -- 80
2020-01-26 18:00:00 4.7 8 Sudoeste 18 Oeste 0 -- -- 76
2020-01-26 17:00:00 5.3 8 Oeste 18 Oeste 0 -- -- 71
2020-01-26 16:00:00 6.6 8 Oeste 19 Oeste 0 -- -- 71
2020-01-26 15:00:00 5.7 6 Noroeste 14 Norte 0 -- -- 74
2020-01-26 14:00:00 4.2 6 Noroeste 13 Oeste 0 -- -- 82
2020-01-26 13:00:00 4.1 9 Noroeste 22 Sudoeste 0 -- -- 84
2020-01-26 12:00:00 5.5 6 Oeste 18 Oeste 0 -- -- 87
2020-01-26 11:00:00 3.1 6 Oeste 11 Sudoeste 0 -- -- 100
2020-01-26 10:00:00 2.6 5 Oeste 14 Oeste 0 -- -- 100
2020-01-26 09:00:00 2.4 6 Oeste 13 Oeste 0 -- -- 100
2020-01-26 08:00:00 2.2 3 Oeste 9 Oeste 0.2 -- -- 100
2020-01-26 07:00:00 2.2 5 Oeste 10 Sudoeste 0 -- -- 99
2020-01-26 06:00:00 2.4 5 Oeste 10 Oeste 0 -- -- 99
2020-01-26 05:00:00 2.5 3 Sudoeste 9 Oeste 0 -- -- 99
2020-01-26 04:00:00 2.8 2 Noroeste 10 Oeste 0.6 -- -- 99
2020-01-26 03:00:00 2.6 3 Sudoeste 6 Sudoeste 0.2 -- -- 99
2020-01-26 02:00:00 2.5 3 Sudoeste 8 Sur 0 -- -- 99
2020-01-26 01:00:00 2.5 5 Sur 9 Sudoeste 0.2 -- -- 98
2020-01-26 00:00:00 2.4 4 Sudoeste 11 Oeste 0.2 -- -- 97
2020-01-25 23:00:00 2.4 6 Sudoeste 18 Sudoeste 0 -- -- 96
2020-01-25 22:00:00 2.5 5 Sudoeste 19 Sudoeste 0.4 -- -- 97
2020-01-25 21:00:00 2.8 9 Sudoeste 20 Sudoeste 0.6 -- -- 96
2020-01-25 20:00:00 3.1 6 Sudoeste 15 Sudoeste 0.6 -- -- 96
2020-01-25 19:00:00 3.2 0 Calma 2 Nordeste 0 -- -- 95
2020-01-25 18:00:00 3.5 0 Calma 2 Sur 0 -- -- 93
2020-01-25 17:00:00 3.4 0 Calma 13 Sudoeste 0.4 -- -- 94
2020-01-25 16:00:00 3.7 6 Sur 18 Sur 1 -- -- 92
2020-01-25 15:00:00 5.4 5 Sudoeste 21 Sur 0 -- -- 87
2020-01-25 14:00:00 5.2 5 Sudoeste 13 Sudoeste 0.2 -- -- 91
2020-01-25 13:00:00 5.4 8 Sudoeste 27 Sudoeste 0 -- -- 85
2020-01-25 12:00:00 5.6 14 Sudoeste 27 Sudoeste 0 -- -- 86
2020-01-25 11:00:00 4.1 9 Sur 20 Sur 0 -- -- 94
2020-01-25 10:00:00 3 6 Sudoeste 22 Sur 0 -- -- 97
2020-01-25 09:00:00 2.2 5 Sur 15 Sudeste 0.4 -- -- 98
2020-01-25 08:00:00 1.3 2 Nordeste 14 Sur 0.8 -- -- 97
2020-01-25 07:00:00 0.9 2 Este 5 Este 0 -- -- 98
2020-01-25 06:00:00 0.9 3 Este 5 Este 0 -- -- 96
2020-01-25 05:00:00 1.4 2 Este 6 Norte 0 -- -- 95
2020-01-25 04:00:00 2.2 2 Sudeste 12 Sudeste 0 -- -- 93
2020-01-25 03:00:00 2 2 Este 6 Este 0 -- -- 94
2020-01-25 02:00:00 2.2 3 Sudeste 7 Sudeste 0 -- -- 93
2020-01-25 01:00:00 2.5 4 Sudeste 10 Sur 0 -- -- 93
2020-01-25 00:00:00 2.5 5 Sur 10 Sur 0 -- -- 93
2020-01-24 23:00:00 2.7 3 Este 11 Sudeste 0 -- -- 93
2020-01-24 22:00:00 2.5 3 Sudeste 7 Sur 0 -- -- 94
2020-01-24 21:00:00 2.6 2 Este 6 Sur 0 -- -- 94
2020-01-24 20:00:00 3 6 Sur 17 Sur 0 -- -- 93
2020-01-24 19:00:00 3.1 7 Sur 12 Sudoeste 0 -- -- 91
2020-01-24 18:00:00 3.4 4 Sudoeste 10 Sudoeste 0 -- -- 89
2020-01-24 17:00:00 4.1 4 Sudoeste 17 Sudoeste 0 -- -- 86
2020-01-24 16:00:00 4.1 6 Sudoeste 18 Sudoeste 0 -- -- 86
2020-01-24 15:00:00 4.4 8 Sudoeste 16 Sudoeste 0 -- -- 84
2020-01-24 14:00:00 3.9 8 Sudoeste 17 Sudoeste 0 -- -- 86
2020-01-24 13:00:00 3.4 6 Sudoeste 19 Sudoeste 0 -- -- 88
2020-01-24 12:00:00 3.2 10 Sur 19 Sur 0 -- -- 87
2020-01-24 11:00:00 2.3 2 Sur 13 Sudoeste 0 -- -- 92
2020-01-24 10:00:00 1.1 0 Calma 4 Norte 0 -- -- 96
2020-01-24 09:00:00 0.4 0 Calma 4 Nordeste 0 -- -- 96
2020-01-24 08:00:00 0.2 0 Calma 5 Nordeste 0 -- -- 96
2020-01-24 07:00:00 0.3 2 Nordeste 6 Nordeste 0 -- -- 97
2020-01-24 06:00:00 0 3 Norte 8 Nordeste 0 -- -- 97
2020-01-24 05:00:00 0.2 4 Nordeste 8 Nordeste 0 -- -- 97
2020-01-24 04:00:00 0.3 0 Calma 5 Este 0 -- -- 96
2020-01-24 03:00:00 0.6 3 Sudeste 12 Sudeste 0 -- -- 94
2020-01-24 02:00:00 1.5 6 Sur 23 Sudoeste 0 -- -- 92
2020-01-24 01:00:00 1.3 8 Sur 17 Sur 0.2 -- -- 93
2020-01-24 00:00:00 1.8 4 Sudeste 9 Sur 0 -- -- 92
2020-01-23 23:00:00 2.2 3 Este 12 Sudeste 0.2 -- -- 90
2020-01-23 22:00:00 2.4 3 Sudeste 8 Sudeste 0.2 -- -- 88
2020-01-23 21:00:00 2.6 3 Sudeste 10 Sudeste 0.2 -- -- 87
2020-01-23 20:00:00 2.3 4 Sur 9 Sur 0.4 -- -- 89
2020-01-23 19:00:00 2.5 8 Sur 12 Sur 0.4 -- -- 89
2020-01-23 18:00:00 3.4 5 Sur 11 Sudoeste 1 -- -- 84
2020-01-23 17:00:00 4.8 6 Sudoeste 15 Sur 2.2 -- -- 78
2020-01-23 16:00:00 5.4 8 Sur 21 Sur 2.6 -- -- 76
2020-01-23 15:00:00 4.7 7 Sudoeste 21 Sudoeste 2.2 -- -- 82
2020-01-23 14:00:00 5.2 7 Sudoeste 22 Sudoeste 2.6 -- -- 82
2020-01-23 13:00:00 4.8 10 Sur 22 Sudoeste 2.8 -- -- 83
2020-01-23 12:00:00 3.7 5 Sur 13 Sudoeste 1.4 -- -- 92
2020-01-23 11:00:00 -0.1 2 Nordeste 5 Nordeste 0.2 -- -- 100
2020-01-23 10:00:00 -2 3 Nordeste 5 Nordeste 0 -- -- 100
2020-01-23 09:00:00 -2.2 2 Sudeste 7 Sudeste 0 -- -- 99
2020-01-23 08:00:00 -1.4 3 Este 6 Este 0 -- -- 100
2020-01-23 07:00:00 -1.4 4 Sudeste 10 Este 0 -- -- 100
2020-01-23 06:00:00 -1 3 Nordeste 7 Nordeste 0 -- -- 100
2020-01-23 05:00:00 -0.3 2 Sudeste 11 Este 0 -- -- 100
2020-01-23 04:00:00 0.1 6 Este 19 Este 0.2 -- -- 100
2020-01-23 03:00:00 0.4 6 Este 14 Nordeste 0 -- -- 100
2020-01-23 02:00:00 0.4 3 Nordeste 16 Nordeste 0.2 -- -- 100
2020-01-23 01:00:00 0.3 4 Nordeste 21 Este 0 -- -- 100
2020-01-23 00:00:00 0 4 Nordeste 13 Este 0 -- -- 100
2020-01-22 23:00:00 -0.2 3 Nordeste 13 Nordeste 0.2 -- -- 100
2020-01-22 22:00:00 -0.3 6 Nordeste 12 Nordeste 0 -- -- 100
2020-01-22 21:00:00 -0.1 5 Nordeste 12 Nordeste 0.2 -- -- 100
2020-01-22 20:00:00 0.2 3 Nordeste 10 Nordeste 0.4 -- -- 100
2020-01-22 19:00:00 0.5 6 Este 14 Nordeste 0.4 -- -- 99
2020-01-22 18:00:00 0.6 6 Nordeste 18 Nordeste 1.4 -- -- 99
2020-01-22 17:00:00 0.9 5 Este 25 Este 2.2 -- -- 98
2020-01-22 16:00:00 1.3 7 Nordeste 21 Nordeste 3.2 -- -- 97
2020-01-22 15:00:00 2.1 6 Nordeste 19 Nordeste 2 -- -- 96
2020-01-22 14:00:00 1.4 6 Nordeste 19 Nordeste 1.8 -- -- 99
2020-01-22 13:00:00 1.2 8 Este 20 Nordeste 1.6 -- -- 100
2020-01-22 12:00:00 0.8 10 Este 23 Este 0.4 -- -- 100
2020-01-22 11:00:00 0.6 0 Calma 8 Este 0 -- -- 100
2020-01-22 10:00:00 0.1 0 Calma -- -- 0 -- -- 100
2020-01-22 09:00:00 0 0 Calma -- -- 0 -- -- 100
2020-01-22 08:00:00 -0.1 0 Calma -- -- 0 -- -- 100
2020-01-22 07:00:00 -0.1 0 Calma -- -- 0 -- -- 100
2020-01-22 06:00:00 -0.3 0 Calma -- -- 0 -- -- 100
2020-01-22 05:00:00 -0.4 0 Calma -- -- 0 -- -- 100
2020-01-22 04:00:00 -0.5 0 Calma -- -- 0 -- -- 100
2020-01-22 03:00:00 -0.4 0 Calma -- -- 0 -- -- 100
2020-01-22 02:00:00 -0.3 0 Calma -- -- 0 -- -- 100
2020-01-22 01:00:00 -0.2 0 Calma -- -- 0 -- -- 100
2020-01-22 00:00:00 -0.1 0 Calma -- -- 0 -- -- 100
2020-01-21 23:00:00 -0.2 0 Calma -- -- 0 -- -- 100
2020-01-21 22:00:00 -0.4 0 Calma -- -- 0 -- -- 100
2020-01-21 21:00:00 -0.4 0 Calma -- -- 0 -- -- 100
2020-01-21 20:00:00 -0.3 0 Calma -- -- 0 -- -- 100
2020-01-21 19:00:00 -0.3 0 Calma 21 Este 0 -- -- 100
2020-01-21 18:00:00 -0.4 6 Nordeste 28 Este 0 -- -- 100
2020-01-21 17:00:00 -0.5 7 Nordeste 21 Nordeste 0 -- -- 100
2020-01-21 16:00:00 -0.6 5 Este 25 Nordeste 0 -- -- 99
2020-01-21 15:00:00 -0.5 11 Nordeste 30 Este 0 -- -- 99
2020-01-21 14:00:00 -0.6 12 Nordeste 41 Este 0 -- -- 99
2020-01-21 13:00:00 -0.6 16 Nordeste 45 Este 0 -- -- 99
2020-01-21 12:00:00 -1 19 Nordeste 42 Nordeste 0 -- -- 99
2020-01-21 11:00:00 -1.2 13 Nordeste 46 Nordeste 0 -- -- 98
2020-01-21 10:00:00 -1.4 13 Nordeste 45 Este 0 -- -- 98
2020-01-21 09:00:00 -1.9 18 Nordeste 42 Este 0 -- -- 98
2020-01-21 08:00:00 -2.3 12 Nordeste 32 Nordeste 0 -- -- 98
2020-01-21 07:00:00 -2 15 Este 37 Este 0 -- -- 95
2020-01-21 06:00:00 -2.1 17 Nordeste 50 Nordeste 0 -- -- 97
2020-01-21 05:00:00 -2.3 13 Nordeste 46 Este 0 -- -- 96
2020-01-21 04:00:00 -2.8 10 Nordeste 44 Este 0 -- -- 97
2020-01-21 03:00:00 -2.9 18 Nordeste 46 Este 0 -- -- 96
2020-01-21 02:00:00 -2.8 21 Nordeste 55 Este 0 -- -- 95
2020-01-21 01:00:00 -2.6 19 Nordeste 49 Este 0 -- -- 95
2020-01-21 00:00:00 -2.4 19 Nordeste 56 Nordeste 0 -- -- 94
2020-01-20 23:00:00 -2.4 21 Este 54 Este 0 -- -- 94
2020-01-20 22:00:00 -2.6 23 Nordeste 57 Este 0 -- -- 97
2020-01-20 21:00:00 -3.1 14 Nordeste 44 Nordeste 0 -- -- 97
2020-01-20 20:00:00 -3.1 14 Nordeste 37 Nordeste 0 -- -- 96
2020-01-20 19:00:00 -3.3 14 Nordeste 42 Nordeste 0 -- -- 97
2020-01-20 18:00:00 -3.1 14 Nordeste 48 Nordeste 0 -- -- 96
2020-01-20 17:00:00 -2.7 11 Nordeste 36 Nordeste 0 -- -- 96
2020-01-20 16:00:00 -2.7 17 Nordeste 51 Este 0 -- -- 95
2020-01-20 15:00:00 -1.9 17 Nordeste 45 Nordeste 0 -- -- 89
2020-01-20 14:00:00 -1.6 10 Nordeste 45 Nordeste 0 -- -- 83
2020-01-20 13:00:00 -1.9 13 Nordeste 40 Nordeste 0 -- -- 78
2020-01-20 12:00:00 -2.6 17 Nordeste 46 Nordeste 0 -- -- 70
2020-01-20 11:00:00 -3.2 17 Nordeste 40 Nordeste 0 -- -- 69
2020-01-20 10:00:00 -3.9 9 Nordeste 30 Nordeste 0 -- -- 72
2020-01-20 09:00:00 -4.6 11 Nordeste 30 Este 0 -- -- 75
2020-01-20 08:00:00 -4.8 9 Nordeste 26 Nordeste 0 -- -- 75
2020-01-20 07:00:00 -4.9 7 Nordeste 30 Nordeste 0 -- -- 78
2020-01-20 06:00:00 -4.9 7 Nordeste 36 Nordeste 0 -- -- 79
2020-01-20 05:00:00 -4.4 15 Nordeste 34 Nordeste 0 -- -- 77
2020-01-20 04:00:00 -4.4 14 Nordeste 41 Nordeste 0 -- -- 79
2020-01-20 03:00:00 -4.4 19 Nordeste 40 Nordeste 0 -- -- 79
2020-01-20 02:00:00 -4.4 15 Nordeste 39 Nordeste 0 -- -- 79
2020-01-20 01:00:00 -4 22 Nordeste 45 Nordeste 0 -- -- 78
2020-01-20 00:00:00 -3.5 22 Nordeste 41 Nordeste 0 -- -- 76
2020-01-19 23:00:00 -2.8 18 Nordeste 39 Nordeste 0 -- -- 72
2020-01-19 22:00:00 -2.4 25 Nordeste 50 Nordeste 0 -- -- 71
2020-01-19 21:00:00 -2.2 19 Nordeste 48 Nordeste 0 -- -- 70
2020-01-19 20:00:00 -1.8 24 Nordeste 59 Nordeste 0 -- -- 67
2020-01-19 19:00:00 -1 26 Nordeste 58 Nordeste 0.2 -- -- 63
2020-01-19 18:00:00 -0.1 29 Nordeste 55 Nordeste 0 -- -- 63
2020-01-19 17:00:00 0.9 21 Nordeste 45 Nordeste 0 -- -- 69
2020-01-19 16:00:00 1.1 22 Nordeste 44 Nordeste 0 -- -- 71
2020-01-19 15:00:00 0.8 25 Nordeste 45 Nordeste 0 -- -- 80
2020-01-19 14:00:00 0.2 26 Nordeste 52 Nordeste 0 -- -- 90
2020-01-19 13:00:00 0 27 Nordeste 46 Norte 0 -- -- 95
2020-01-19 12:00:00 0.5 26 Nordeste 51 Norte 0 -- -- 93
2020-01-19 11:00:00 0.5 28 Nordeste 53 Nordeste 0.2 -- -- 94
2020-01-19 10:00:00 0.6 25 Nordeste 44 Nordeste 0.4 -- -- 97
2020-01-19 09:00:00 0.5 22 Nordeste 44 Nordeste 0.2 -- -- 98
2020-01-19 08:00:00 0.2 9 Norte 20 Nordeste 0 -- -- 99
2020-01-19 07:00:00 0.3 8 Norte 18 Noroeste 0 -- -- 98
2020-01-19 06:00:00 1 8 Noroeste 14 Noroeste 0.2 -- -- 96
2020-01-19 05:00:00 1.2 6 Nordeste 18 Nordeste 0 -- -- 96
2020-01-19 04:00:00 1.3 9 Norte 20 Nordeste 0 -- -- 96
2020-01-19 03:00:00 1.6 7 Norte 16 Noroeste 0 -- -- 95
2020-01-19 02:00:00 1.8 0 Calma 14 Noroeste 0 -- -- 94
2020-01-19 01:00:00 2.4 9 Noroeste 20 Noroeste 0 -- -- 91
2020-01-19 00:00:00 3 5 Sudoeste 26 Noroeste 0.4 -- -- 94
2020-01-18 23:00:00 4.1 14 Noroeste 39 Noroeste 2 -- -- 96
2020-01-18 22:00:00 5.3 15 Sudoeste 37 Sudoeste 0 -- -- 97
2020-01-18 21:00:00 5.4 17 Sudoeste 34 Sudoeste 0.6 -- -- 98
2020-01-18 20:00:00 5.3 18 Sudoeste 38 Sudoeste 0.2 -- -- 97
2020-01-18 19:00:00 5.2 19 Sudoeste 41 Sudoeste 0 -- -- 97
2020-01-18 18:00:00 5.1 15 Sudoeste 31 Sudoeste 0.2 -- -- 98
2020-01-18 17:00:00 4.8 13 Sudoeste 39 Sur 0 -- -- 97
2020-01-18 16:00:00 4.6 17 Sudoeste 38 Sudoeste 0.2 -- -- 96
2020-01-18 15:00:00 4.6 16 Sudoeste 39 Sudoeste 0 -- -- 95
2020-01-18 14:00:00 5 20 Sudoeste 37 Sudoeste 0 -- -- 92
2020-01-18 13:00:00 3.9 21 Sudoeste 40 Sudoeste 0 -- -- 94
2020-01-18 12:00:00 3.6 18 Sudoeste 40 Sudoeste 0 -- -- 96
2020-01-18 11:00:00 3.5 17 Sudoeste 33 Sudoeste 0 -- -- 96
2020-01-18 10:00:00 3.2 11 Sudoeste 22 Sudoeste 0 -- -- 97
2020-01-18 09:00:00 2.7 11 Sudoeste 29 Sudoeste 0 -- -- 97
2020-01-18 08:00:00 2.8 16 Sudoeste 26 Sudoeste 0 -- -- 96
2020-01-18 07:00:00 2.4 6 Sudoeste 17 Sudoeste 0 -- -- 95
2020-01-18 06:00:00 1.9 4 Sudoeste 20 Sur 0 -- -- 96
2020-01-18 05:00:00 1.7 17 Sudoeste 22 Sur 0 -- -- 96
2020-01-18 04:00:00 1.3 5 Sudoeste 22 Sudoeste 0 -- -- 97
2020-01-18 03:00:00 0.1 13 Sudoeste 22 Sur 0 -- -- 91
2020-01-18 02:00:00 -0.4 4 Sur 8 Sur 0 -- -- 86
2020-01-18 01:00:00 -0.1 5 Sur 8 Sur 0 -- -- 85
2020-01-18 00:00:00 -0.3 4 Sur 7 Sur 0 -- -- 84
2020-01-17 23:00:00 0 0 Calma 6 Sur 0 -- -- 81
2020-01-17 22:00:00 0.5 3 Sudoeste 7 Sur 0 -- -- 78
2020-01-17 21:00:00 1.8 3 Sur 9 Sudoeste 0 -- -- 73
2020-01-17 20:00:00 3.3 4 Sudoeste 14 Sudoeste 0 -- -- 69
2020-01-17 19:00:00 4.5 3 Sudoeste 21 Oeste 0 -- -- 65
2020-01-17 18:00:00 6 9 Sudoeste 27 Oeste 0 -- -- 65
2020-01-17 17:00:00 7.1 12 Oeste 33 Oeste 0 -- -- 64
2020-01-17 16:00:00 7 17 Oeste 40 Oeste 0 -- -- 66
2020-01-17 15:00:00 6.5 14 Oeste 31 Oeste 0 -- -- 75
2020-01-17 14:00:00 5.9 14 Oeste 37 Sudoeste 0 -- -- 85
2020-01-17 13:00:00 4.7 14 Sudoeste 32 Sudoeste 0 -- -- 88
2020-01-17 12:00:00 4.8 15 Sudoeste 37 Sudoeste 0 -- -- 87
2020-01-17 11:00:00 4 15 Sudoeste 31 Sudoeste 0 -- -- 89
2020-01-17 10:00:00 3.6 18 Sudoeste 38 Sudoeste 0 -- -- 87
2020-01-17 09:00:00 3.4 17 Sudoeste 32 Sur 0 -- -- 87
2020-01-17 08:00:00 3.5 17 Sudoeste 30 Oeste 0 -- -- 83
2020-01-17 07:00:00 3.6 17 Sudoeste 30 Sudoeste 0 -- -- 81
2020-01-17 06:00:00 3.9 16 Sudoeste 30 Sudoeste 0 -- -- 78
2020-01-17 05:00:00 4.3 13 Sudoeste 34 Sudoeste 0 -- -- 76
2020-01-17 04:00:00 4.3 10 Sudoeste 34 Sudoeste 0 -- -- 71
2020-01-17 03:00:00 4.8 17 Sudoeste 35 Sudoeste 0 -- -- 68
2020-01-17 02:00:00 5.4 18 Sudoeste 40 Sur 0 -- -- 66
2020-01-17 01:00:00 5.6 19 Sudoeste 38 Sudoeste 0 -- -- 64
2020-01-17 00:00:00 4.9 15 Sudoeste 33 Sudoeste 0 -- -- 67
2020-01-16 23:00:00 5.7 19 Sudoeste 38 Sudoeste 0 -- -- 64
2020-01-16 22:00:00 5.7 16 Sudoeste 36 Sudoeste 0 -- -- 67
2020-01-16 21:00:00 5.6 18 Sudoeste 36 Sudoeste 0 -- -- 70
2020-01-16 20:00:00 5.2 13 Sudoeste 23 Sudoeste 0 -- -- 77
2020-01-16 19:00:00 6.3 13 Sudoeste 25 Sudoeste 0 -- -- 74
2020-01-16 18:00:00 7.5 13 Sudoeste 31 Sudoeste 0 -- -- 71
2020-01-16 17:00:00 9.2 14 Sudoeste 35 Sudoeste 0 -- -- 68
2020-01-16 16:00:00 9 20 Sudoeste 35 Sudoeste 0 -- -- 73
2020-01-16 15:00:00 8.9 15 Sudoeste 33 Sudoeste 0 -- -- 79
2020-01-16 14:00:00 8.2 17 Sudoeste 38 Sudoeste 0 -- -- 81
2020-01-16 13:00:00 8.1 18 Sudoeste 33 Sudoeste 0 -- -- 83
2020-01-16 12:00:00 7.6 14 Sudoeste 30 Sur 0 -- -- 84
2020-01-16 11:00:00 7 14 Sudoeste 32 Sur 0 -- -- 86
2020-01-16 10:00:00 5.8 14 Sudoeste 31 Sudoeste 0 -- -- 94
2020-01-16 09:00:00 5.4 14 Sur 24 Sudoeste 0 -- -- 95
2020-01-16 08:00:00 5.1 11 Sur 18 Sur 0 -- -- 94
2020-01-16 07:00:00 5.2 10 Sur 18 Sudoeste 0 -- -- 94
2020-01-16 06:00:00 5.3 11 Sur 19 Sur 0 -- -- 93
2020-01-16 05:00:00 5.3 6 Sudoeste 18 Sur 0 -- -- 94
2020-01-16 04:00:00 5.1 11 Sur 20 Sur 0 -- -- 95
2020-01-16 03:00:00 5.1 9 Sudoeste 22 Sudoeste 0 -- -- 94
2020-01-16 02:00:00 5 12 Sudoeste 19 Sudoeste 0 -- -- 93
2020-01-16 01:00:00 5.1 11 Sudoeste 21 Sur 0 -- -- 92
2020-01-16 00:00:00 5.2 9 Sudoeste 19 Sudoeste 0 -- -- 90
2020-01-15 23:00:00 5.2 9 Sudoeste 26 Sudoeste 0 -- -- 91
2020-01-15 22:00:00 5.2 10 Sudoeste 26 Sudoeste 0 -- -- 91
2020-01-15 21:00:00 5.1 14 Sudoeste 24 Sudoeste 0 -- -- 90
2020-01-15 20:00:00 5 10 Sudoeste 23 Sudoeste 0 -- -- 89
2020-01-15 19:00:00 5 10 Sudoeste 23 Sudoeste 0 -- -- 87
2020-01-15 18:00:00 5.3 10 Sudoeste 29 Sudoeste 0 -- -- 86
2020-01-15 17:00:00 5.8 12 Sudoeste 30 Sudoeste 0 -- -- 80
2020-01-15 16:00:00 6.2 15 Sudoeste 29 Sudoeste 0 -- -- 78
2020-01-15 15:00:00 7.3 17 Sudoeste 31 Sudoeste 0 -- -- 72
2020-01-15 14:00:00 7 17 Sudoeste 39 Sudoeste 0 -- -- 70
2020-01-15 13:00:00 7.3 18 Sudoeste 35 Oeste 0 -- -- 69
2020-01-15 12:00:00 5.9 14 Sudoeste 30 Sudoeste 0 -- -- 76
2020-01-15 11:00:00 4.9 14 Sudoeste 27 Sudoeste 0 -- -- 84
2020-01-15 10:00:00 2.8 13 Sudoeste 26 Sudoeste 0 -- -- 94
2020-01-15 09:00:00 2.3 13 Sudoeste 28 Sudoeste 0 -- -- 94
2020-01-15 08:00:00 2 13 Sudoeste 27 Sudoeste 0 -- -- 93
2020-01-15 07:00:00 2.4 14 Sudoeste 33 Sudoeste 0 -- -- 91
2020-01-15 06:00:00 2.9 12 Sudoeste 26 Sudoeste 0 -- -- 89
2020-01-15 05:00:00 2.6 13 Sudoeste 25 Sudoeste 0 -- -- 87
2020-01-15 04:00:00 2.7 9 Sudoeste 24 Sur 0 -- -- 84
2020-01-15 03:00:00 2.5 13 Sudoeste 31 Sudoeste 0 -- -- 86
2020-01-15 02:00:00 2.3 13 Sudoeste 30 Sudoeste 0 -- -- 86
2020-01-15 01:00:00 2.9 13 Sudoeste 28 Sudoeste 0 -- -- 84
2020-01-15 00:00:00 2.7 14 Sudoeste 30 Sudoeste 0 -- -- 84
2020-01-14 23:00:00 2.6 18 Sudoeste 36 Sudoeste 0 -- -- 84
2020-01-14 22:00:00 2.1 15 Sudoeste 37 Sudoeste 0 -- -- 84
2020-01-14 21:00:00 0.6 18 Sudoeste 28 Sudoeste 0 -- -- 84
2020-01-14 20:00:00 1.4 12 Sudoeste 22 Sudoeste 0 -- -- 79
2020-01-14 19:00:00 2.1 11 Sudoeste 21 Sudoeste 0 -- -- 71
2020-01-14 18:00:00 4 12 Sudoeste 26 Sudoeste 0 -- -- 61
2020-01-14 17:00:00 7.1 14 Sudoeste 25 Sudoeste 0 -- -- 53
2020-01-14 16:00:00 8.2 14 Sudoeste 27 Sudoeste 0 -- -- 53
2020-01-14 15:00:00 7.7 12 Oeste 22 Sudoeste 0 -- -- 53
2020-01-14 14:00:00 7.1 12 Sudoeste 24 Sudoeste 0 -- -- 56
2020-01-14 13:00:00 6.7 12 Sudoeste 22 Sudoeste 0 -- -- 58
2020-01-14 12:00:00 4.9 11 Sudoeste 25 Sudoeste 0 -- -- 66
2020-01-14 11:00:00 2.9 13 Sudoeste 23 Sudoeste 0 -- -- 75
2020-01-14 10:00:00 -0.7 5 Sudoeste 16 Sudoeste 0 -- -- 92
2020-01-14 09:00:00 -2.6 2 Sudoeste 10 Sur 0 -- -- 91
2020-01-14 08:00:00 -2.5 6 Sur 15 Sur 0 -- -- 89
2020-01-14 07:00:00 -1.2 8 Sur 29 Sudoeste 0 -- -- 87
2020-01-14 06:00:00 -0.6 13 Sudoeste 22 Sudoeste 0 -- -- 85
2020-01-14 05:00:00 -1.2 6 Sudoeste 20 Sur 0 -- -- 84
2020-01-14 04:00:00 -0.7 6 Sudoeste 16 Sudoeste 0 -- -- 84
2020-01-14 03:00:00 -0.6 10 Sudoeste 22 Sudoeste 0 -- -- 82
2020-01-14 02:00:00 -0.3 13 Sudoeste 25 Sudoeste 0 -- -- 81
2020-01-14 01:00:00 -0.3 11 Sudoeste 21 Sudoeste 0 -- -- 81
2020-01-14 00:00:00 -0.3 12 Sudoeste 30 Sur 0 -- -- 79
2020-01-13 23:00:00 -0.1 17 Sudoeste 30 Sudoeste 0 -- -- 79
2020-01-13 22:00:00 0.1 8 Sudoeste 24 Sudoeste 0 -- -- 76
2020-01-13 21:00:00 0.8 14 Sudoeste 32 Sur 0 -- -- 75
2020-01-13 20:00:00 1.3 17 Sudoeste 32 Sudoeste 0 -- -- 71
2020-01-13 19:00:00 2.2 9 Sudoeste 18 Sudoeste 0 -- -- 67
2020-01-13 18:00:00 3.9 8 Sudoeste 18 Sudoeste 0 -- -- 57
2020-01-13 17:00:00 5.7 13 Sudoeste 26 Sudoeste 0 -- -- 49
2020-01-13 16:00:00 7 14 Sudoeste 22 Sudoeste 0 -- -- 42
2020-01-13 15:00:00 7.6 11 Sudoeste 30 Sudoeste 0 -- -- 36
2020-01-13 14:00:00 7.6 14 Sudoeste 31 Sudoeste 0 -- -- 34
2020-01-13 13:00:00 7.2 13 Sudoeste 27 Sudoeste 0 -- -- 38
2020-01-13 12:00:00 6.1 9 Sudoeste 20 Sudoeste 0 -- -- 44
2020-01-13 11:00:00 4.1 8 Sudoeste 18 Sudoeste 0 -- -- 51
2020-01-13 10:00:00 0.8 6 Sur 12 Sur 0 -- -- 60
2020-01-13 09:00:00 -1.5 5 Sur 15 Sur 0 -- -- 66
2020-01-13 08:00:00 -1.7 6 Sur 15 Sur 0 -- -- 66
2020-01-13 07:00:00 -1.6 8 Sur 17 Sur 0 -- -- 65
2020-01-13 06:00:00 -1.5 8 Sur 14 Sur 0 -- -- 63
2020-01-13 05:00:00 -1.2 6 Sur 9 Sudoeste 0 -- -- 61
2020-01-13 04:00:00 -1.8 2 Sudoeste 10 Sudoeste 0 -- -- 63
2020-01-13 03:00:00 -1.3 3 Sur 14 Sudoeste 0 -- -- 60
2020-01-13 02:00:00 -1.4 6 Sur 17 Sur 0 -- -- 60
2020-01-13 01:00:00 -1.6 5 Sur 12 Sur 0 -- -- 56
2020-01-13 00:00:00 -1.6 2 Sudeste 10 Sur 0 -- -- 51
2020-01-12 23:00:00 -1.2 7 Sur 11 Sur 0 -- -- 50
2020-01-12 22:00:00 0.4 3 Este 5 Sudeste 0 -- -- 43
2020-01-12 21:00:00 1.6 2 Este 6 Este 0 -- -- 41
2020-01-12 20:00:00 2.7 0 Calma 5 Este 0 -- -- 39
2020-01-12 19:00:00 5.1 4 Este 8 Este 0 -- -- 29
2020-01-12 18:00:00 7.5 2 Norte 7 Norte 0 -- -- 24
2020-01-12 17:00:00 10.4 4 Norte 11 Noroeste 0 -- -- 24
2020-01-12 16:00:00 10.6 5 Oeste 10 Oeste 0 -- -- 27
2020-01-12 15:00:00 9.9 5 Noroeste 13 Sudoeste 0 -- -- 29
2020-01-12 14:00:00 9.3 4 Nordeste 8 Nordeste 0 -- -- 31
2020-01-12 13:00:00 6.9 3 Oeste 9 Oeste 0 -- -- 37
2020-01-12 12:00:00 5.5 3 Nordeste 8 Noroeste 0 -- -- 44
2020-01-12 11:00:00 2 2 Este 7 Este 0 -- -- 56
2020-01-12 10:00:00 -4.9 2 Nordeste 4 Nordeste 0 -- -- 85
2020-01-12 09:00:00 -5.3 2 Este 5 Sur 0 -- -- 81
2020-01-12 08:00:00 -5 2 Sur 5 Sur 0 -- -- 76
2020-01-12 07:00:00 -4.7 2 Sur 5 Sur 0 -- -- 74
2020-01-12 06:00:00 -4.2 4 Sudoeste 5 Sudoeste 0 -- -- 73
2020-01-12 05:00:00 -4 3 Sur 6 Sur 0 -- -- 73
2020-01-12 04:00:00 -3.8 3 Sur 6 Sur 0 -- -- 74
2020-01-12 03:00:00 -3.4 3 Sur 8 Sur 0 -- -- 75
2020-01-12 02:00:00 -3.2 4 Sur 5 Sur 0 -- -- 74
2020-01-12 01:00:00 -2.7 4 Sur 6 Sur 0 -- -- 73
2020-01-12 00:00:00 -2 4 Sudoeste 6 Sudoeste 0 -- -- 70
2020-01-11 23:00:00 -1.2 5 Sudoeste 9 Sudoeste 0 -- -- 69
2020-01-11 22:00:00 -0.1 5 Sudoeste 10 Sur 0 -- -- 65
2020-01-11 21:00:00 1 5 Sudoeste 9 Sur 0 -- -- 60
2020-01-11 20:00:00 2 5 Sur 8 Sur 0 -- -- 56
2020-01-11 19:00:00 3.7 3 Sudoeste 10 Sudoeste 0 -- -- 50
2020-01-11 18:00:00 6.2 5 Sudoeste 15 Oeste 0 -- -- 48
2020-01-11 17:00:00 8.7 7 Oeste 17 Oeste 0 -- -- 39
2020-01-11 16:00:00 9.2 5 Oeste 13 Sudoeste 0 -- -- 40
2020-01-11 15:00:00 8 7 Oeste 14 Oeste 0 -- -- 41
2020-01-11 14:00:00 7.1 0 Calma 5 Nordeste 0 -- -- 50
2020-01-11 13:00:00 5.4 3 Nordeste 6 Nordeste 0 -- -- 69
2020-01-11 12:00:00 2.6 3 Nordeste 5 Nordeste 0 -- -- 82
2020-01-11 11:00:00 0.1 3 Este 7 Este 0 -- -- 98
2020-01-11 10:00:00 -3.7 0 Calma 3 Nordeste 0 -- -- 97
2020-01-11 09:00:00 -4.1 0 Calma 8 Este 0 -- -- 96
2020-01-11 08:00:00 -4 2 Nordeste 4 Norte 0 -- -- 96
2020-01-11 07:00:00 -3.2 2 Este 6 Sudeste 0 -- -- 96
2020-01-11 06:00:00 -2.6 3 Este 6 Sudeste 0 -- -- 96
2020-01-11 05:00:00 -2.5 0 Calma 3 Nordeste 0 -- -- 93
2020-01-11 04:00:00 -2 0 Calma 9 Este 0 -- -- 94
2020-01-11 03:00:00 -2 4 Este 8 Este 0 -- -- 94
2020-01-11 02:00:00 -1.6 3 Este 8 Nordeste 0 -- -- 92
2020-01-11 01:00:00 -1 2 Nordeste 8 Este 0 -- -- 89
2020-01-11 00:00:00 -0.4 3 Nordeste 15 Nordeste 0 -- -- 88
2020-01-10 23:00:00 0.4 10 Norte 23 Norte 0 -- -- 87
2020-01-10 22:00:00 0.5 5 Nordeste 27 Nordeste 0 -- -- 86
2020-01-10 21:00:00 1.3 17 Nordeste 28 Nordeste 0 -- -- 82
2020-01-10 20:00:00 1.9 15 Nordeste 27 Nordeste 0 -- -- 79
2020-01-10 19:00:00 2.4 20 Nordeste 41 Norte 0 -- -- 76
2020-01-10 18:00:00 3 19 Nordeste 49 Nordeste 0 -- -- 73
2020-01-10 17:00:00 4.3 16 Nordeste 33 Nordeste 0 -- -- 67
2020-01-10 16:00:00 4.5 26 Nordeste 49 Nordeste 0 -- -- 67
2020-01-10 15:00:00 4.7 20 Nordeste 40 Nordeste 0 -- -- 65
2020-01-10 14:00:00 4.6 12 Nordeste 31 Nordeste 0 -- -- 66
2020-01-10 13:00:00 4.2 17 Nordeste 39 Nordeste 0 -- -- 67
2020-01-10 12:00:00 2.9 21 Nordeste 41 Norte 0 -- -- 72
2020-01-10 11:00:00 2.1 16 Nordeste 34 Nordeste 0 -- -- 80
2020-01-10 10:00:00 0.6 9 Nordeste 21 Norte 0 -- -- 89
2020-01-10 09:00:00 -0.4 3 Nordeste 9 Nordeste 0 -- -- 93
2020-01-10 08:00:00 -0.1 3 Este 9 Nordeste 0 -- -- 91
2020-01-10 07:00:00 0.4 6 Nordeste 28 Nordeste 0 -- -- 89
2020-01-10 06:00:00 1.5 14 Norte 27 Noroeste 0 -- -- 84
2020-01-10 05:00:00 2.2 7 Norte 16 Noroeste 0 -- -- 84
2020-01-10 04:00:00 3.4 6 Norte 23 Noroeste 0 -- -- 86
2020-01-10 03:00:00 4.1 8 Noroeste 16 Noroeste 0 -- -- 86
2020-01-10 02:00:00 3.3 4 Sur 9 Oeste 0 -- -- 87
2020-01-10 01:00:00 3 5 Norte 12 Sur 0 -- -- 87
2020-01-10 00:00:00 2.6 9 Sur 16 Sur 0 -- -- 88
2020-01-09 23:00:00 2.9 13 Sur 18 Sur 0 -- -- 85
2020-01-09 22:00:00 4.2 4 Sudoeste 12 Sudoeste 0 -- -- 80
2020-01-09 21:00:00 5.5 6 Oeste 12 Sudoeste 0 -- -- 76
2020-01-09 20:00:00 5.5 7 Oeste 20 Sudoeste 0 -- -- 76
2020-01-09 19:00:00 6.2 11 Sudoeste 19 Sudoeste 0 -- -- 72
2020-01-09 18:00:00 8.5 6 Sudoeste 14 Sudoeste 0 -- -- 64
2020-01-09 17:00:00 11.1 9 Sudoeste 27 Oeste 0 -- -- 58
2020-01-09 16:00:00 12.3 11 Sudoeste 22 Oeste 0 -- -- 53
2020-01-09 15:00:00 12 7 Sudoeste 22 Sudoeste 0 -- -- 54
2020-01-09 14:00:00 10.9 12 Sudoeste 21 Sudoeste 0 -- -- 57
2020-01-09 13:00:00 10.5 8 Sudoeste 16 Oeste 0 -- -- 61
2020-01-09 12:00:00 9.3 5 Sudoeste 16 Sudoeste 0 -- -- 67
2020-01-09 11:00:00 6.5 6 Sur 14 Sur 0 -- -- 79
2020-01-09 10:00:00 1.3 2 Sudoeste 5 Sudoeste 0 -- -- 93
2020-01-09 09:00:00 0.9 3 Sudoeste 10 Sur 0 -- -- 93
2020-01-09 08:00:00 -0.1 3 Sudoeste 5 Oeste 0 -- -- 93
2020-01-09 07:00:00 -0.4 0 Calma 5 Sur 0 -- -- 92
2020-01-09 06:00:00 0.1 0 Calma 7 Sur 0 -- -- 91
2020-01-09 05:00:00 1 0 Calma 11 Sur 0 -- -- 87
2020-01-09 04:00:00 1.4 6 Sudoeste 12 Sur 0 -- -- 87
2020-01-09 03:00:00 1.2 3 Sur 12 Sur 0 -- -- 86
2020-01-09 02:00:00 1.5 0 Calma 5 Sudeste 0 -- -- 87
2020-01-09 01:00:00 2.1 0 Calma 6 Sudoeste 0 -- -- 83
2020-01-09 00:00:00 2.8 2 Nordeste 7 Sur 0 -- -- 85
2020-01-08 23:00:00 3.1 2 Sur 7 Sur 0 -- -- 80
2020-01-08 22:00:00 3.2 5 Sudoeste 14 Sur 0 -- -- 78
2020-01-08 21:00:00 4.6 4 Sur 8 Sur 0 -- -- 72
2020-01-08 20:00:00 5.9 3 Sur 8 Sudoeste 0 -- -- 69
2020-01-08 19:00:00 8 0 Calma 4 Sur 0 -- -- 63
2020-01-08 18:00:00 10.2 3 Este 6 Este 0 -- -- 59
2020-01-08 17:00:00 12 4 Nordeste 13 Nordeste 0 -- -- 55
2020-01-08 16:00:00 11.8 7 Nordeste 16 Nordeste 0 -- -- 56
2020-01-08 15:00:00 11.3 7 Nordeste 19 Nordeste 0 -- -- 58
2020-01-08 14:00:00 10.8 6 Nordeste 18 Nordeste 0 -- -- 59
2020-01-08 13:00:00 9.1 7 Nordeste 15 Nordeste 0 -- -- 55
2020-01-08 12:00:00 6.6 5 Nordeste 10 Nordeste 0 -- -- 53
2020-01-08 11:00:00 4.4 4 Nordeste 8 Nordeste 0 -- -- 60
2020-01-08 10:00:00 -0.1 3 Norte 7 Nordeste 0 -- -- 68
2020-01-08 09:00:00 0 3 Este 5 Sudeste 0 -- -- 61
2020-01-08 08:00:00 -0.4 3 Este 5 Sudeste 0 -- -- 61
2020-01-08 07:00:00 0.6 0 Calma 5 Nordeste 0 -- -- 55
2020-01-08 06:00:00 0.6 0 Calma 5 Nordeste 0 -- -- 56
2020-01-08 05:00:00 1.3 0 Calma 5 Nordeste 0 -- -- 52
2020-01-08 04:00:00 1.7 0 Calma 5 Nordeste 0 -- -- 49
2020-01-08 03:00:00 2.9 0 Calma 4 Este 0 -- -- 44
2020-01-08 02:00:00 2.8 0 Calma 5 Sudeste 0 -- -- 46
2020-01-08 01:00:00 2.5 2 Sudeste 5 Sudeste 0 -- -- 50
2020-01-08 00:00:00 4.3 4 Nordeste 14 Nordeste 0 -- -- 44
2020-01-07 23:00:00 3.7 0 Calma 5 Nordeste 0 -- -- 47
2020-01-07 22:00:00 4.2 0 Calma 4 Norte 0 -- -- 42
2020-01-07 21:00:00 5.3 2 Nordeste 6 Norte 0 -- -- 40
2020-01-07 20:00:00 6.9 3 Norte 8 Norte 0 -- -- 37
2020-01-07 19:00:00 8 0 Calma 6 Noroeste 0 -- -- 35
2020-01-07 18:00:00 10.5 5 Noroeste 12 Noroeste 0 -- -- 30
2020-01-07 17:00:00 13.5 4 Oeste 17 Oeste 0 -- -- 28
2020-01-07 16:00:00 13.9 7 Noroeste 14 Noroeste 0 -- -- 26
2020-01-07 15:00:00 12.9 3 Norte 13 Oeste 0 -- -- 29
2020-01-07 14:00:00 12.7 4 Oeste 10 Oeste 0 -- -- 32
2020-01-07 13:00:00 12 0 Calma 5 Este 0 -- -- 31
2020-01-07 12:00:00 9.1 0 Calma 5 Nordeste 0 -- -- 37
2020-01-07 11:00:00 3.1 3 Este 6 Sudeste 0 -- -- 67
2020-01-07 10:00:00 -1.2 0 Calma 6 Sudeste 0 -- -- 76
2020-01-07 09:00:00 -1.8 2 Este 5 Sudeste 0 -- -- 74
2020-01-07 08:00:00 -1.3 0 Calma 9 Sur 0 -- -- 71
2020-01-07 07:00:00 -0.9 2 Sur 6 Sur 0 -- -- 65
2020-01-07 06:00:00 -1.8 0 Calma 5 Nordeste 0 -- -- 77
2020-01-07 05:00:00 -0.4 3 Nordeste 6 Nordeste 0 -- -- 71
2020-01-07 04:00:00 -0.2 3 Este 8 Este 0 -- -- 70
2020-01-07 03:00:00 -0.8 3 Este 7 Sudeste 0 -- -- 75
2020-01-07 02:00:00 -0.5 0 Calma 6 Nordeste 0 -- -- 74
2020-01-07 01:00:00 1.1 3 Nordeste 6 Nordeste 0 -- -- 67
2020-01-07 00:00:00 2.2 3 Este 9 Este 0 -- -- 62
2020-01-06 23:00:00 2.9 2 Este 4 Nordeste 0 -- -- 61
2020-01-06 22:00:00 3 2 Este 4 Sudeste 0 -- -- 61
2020-01-06 21:00:00 3.4 0 Calma 6 Sudoeste 0 -- -- 59
2020-01-06 20:00:00 5.1 5 Sudoeste 10 Sur 0 -- -- 53
2020-01-06 19:00:00 6.5 3 Sudoeste 12 Sur 0 -- -- 47
2020-01-06 18:00:00 9.9 5 Sudoeste 13 Oeste 0 -- -- 38
2020-01-06 17:00:00 13.6 5 Sudoeste 13 Oeste 0 -- -- 32
2020-01-06 16:00:00 13.7 6 Oeste 17 Oeste 0 -- -- 31
2020-01-06 15:00:00 12.1 10 Oeste 21 Oeste 0 -- -- 35
2020-01-06 14:00:00 12.8 8 Oeste 18 Sudoeste 0 -- -- 35
2020-01-06 13:00:00 12.1 7 Oeste 14 Oeste 0 -- -- 38
2020-01-06 12:00:00 11.1 6 Oeste 10 Oeste 0 -- -- 39
2020-01-06 11:00:00 7.8 5 Oeste 10 Oeste 0 -- -- 47
2020-01-06 10:00:00 2 0 Calma 8 Sudoeste 0 -- -- 61